Time;durP1;ratioP1;P1;durP2;ratioP2;P2;SDS_P1;SDS_P2;PMS_P1;PMS_P2;Temp;Humidity;BMP_temperature;BMP_pressure;BME280_temperature;BME280_humidity;BME280_pressure;Samples;Min_cycle;Max_cycle;Signal;HPM_P1;HPM_P2
2022/08/02 00:00:02;;;;;;;3.17;2.97;;;;;;;22.42;68.80;100475.81;5056253;27;104338;-54
2022/08/02 00:02:29;;;;;;;3.38;3.10;;;;;;;22.41;69.04;100479.75;5057986;27;102318;-54
2022/08/02 00:04:55;;;;;;;3.60;3.40;;;;;;;22.40;69.10;100472.59;5056262;27;102436;-54
2022/08/02 00:07:22;;;;;;;3.42;3.22;;;;;;;22.41;68.78;100474.22;5057729;27;102364;-54
2022/08/02 00:09:50;;;;;;;3.70;3.30;;;;;;;22.41;68.96;100474.22;5057344;27;104029;-54
2022/08/02 00:12:16;;;;;;;3.87;3.57;;;;;;;22.40;68.95;100473.41;5057281;27;102193;-54
2022/08/02 00:14:43;;;;;;;3.60;3.30;;;;;;;22.40;68.88;100478.16;5056962;27;101896;-54
2022/08/02 00:17:09;;;;;;;3.63;3.33;;;;;;;22.39;69.01;100482.06;5058125;27;102665;-54
2022/08/02 00:19:36;;;;;;;3.47;3.25;;;;;;;22.39;68.70;100484.84;5054731;27;103903;-54
2022/08/02 00:22:02;;;;;;;3.60;3.33;;;;;;;22.39;68.78;100488.41;5047883;27;102092;-54
2022/08/02 00:24:29;;;;;;;3.75;3.50;;;;;;;22.40;68.44;100483.69;5047224;27;102384;-54
2022/08/02 00:26:57;;;;;;;3.78;3.45;;;;;;;22.40;68.67;100486.47;5055240;27;102235;-54
2022/08/02 00:29:23;;;;;;;3.70;3.40;;;;;;;22.41;68.47;100485.31;5057255;27;103918;-54
2022/08/02 00:31:50;;;;;;;3.58;3.28;;;;;;;22.41;68.14;100485.31;5053691;27;102278;-54
2022/08/02 00:34:16;;;;;;;3.63;3.33;;;;;;;22.41;68.52;100482.53;5041037;27;102288;-54
2022/08/02 00:36:43;;;;;;;3.92;3.40;;;;;;;22.40;68.57;100480.94;5058080;27;102590;-54
2022/08/02 00:39:09;;;;;;;2.92;2.72;;;;;;;22.40;68.79;100484.50;5056353;27;104179;-54
2022/08/02 00:41:44;;;;;;;3.20;3.00;;;;;;;22.39;68.79;100490.38;5055678;27;102316;-55
2022/08/02 00:44:12;;;;;;;3.30;3.10;;;;;;;22.40;68.84;100492.00;5055882;27;102407;-54
2022/08/02 00:46:39;;;;;;;3.88;3.58;;;;;;;22.38;68.95;100486.81;5057326;27;102171;-54
2022/08/02 00:49:05;;;;;;;3.40;3.20;;;;;;;22.39;68.84;100487.59;5056108;27;104128;-54
2022/08/02 00:51:32;;;;;;;3.00;2.80;;;;;;;22.38;68.72;100491.56;5056885;27;102350;-54
2022/08/02 00:53:59;;;;;;;3.67;3.38;;;;;;;22.38;68.82;100497.91;5055591;27;102150;-54
2022/08/02 00:56:25;;;;;;;3.38;3.17;;;;;;;22.38;68.69;100502.66;5058142;27;102630;-54
2022/08/02 00:58:52;;;;;;;3.47;3.22;;;;;;;22.38;68.73;100497.09;5055451;27;103812;-53
2022/08/02 01:01:20;;;;;;;3.25;3.05;;;;;;;22.38;68.72;100511.75;5055934;27;103918;-54
2022/08/02 01:03:47;;;;;;;3.80;3.50;;;;;;;22.38;68.96;100506.22;5056793;27;102471;-54
2022/08/02 01:06:15;;;;;;;3.63;3.33;;;;;;;22.38;68.89;100505.41;5057138;27;102217;-54
2022/08/02 01:08:42;;;;;;;3.38;3.08;;;;;;;22.38;68.66;100502.66;5073088;27;103930;-54
2022/08/02 01:11:08;;;;;;;3.55;3.22;;;;;;;22.37;68.68;100501.03;5058171;27;102341;-54
2022/08/02 01:13:36;;;;;;;4.18;3.30;;;;;;;22.37;68.92;100501.03;5056133;27;102629;-54
2022/08/02 01:16:10;;;;;;;3.47;3.20;;;;;;;22.37;68.48;100498.28;5056052;27;102342;-54
2022/08/02 01:18:44;;;;;;;3.72;3.40;;;;;;;22.38;68.76;100497.91;5049843;27;104095;-54
2022/08/02 01:21:28;;;;;;;2.97;2.78;;;;;;;22.38;68.50;100497.09;5055482;27;102092;-54
2022/08/02 01:24:13;;;;;;;5.07;3.28;;;;;;;22.38;68.50;100494.31;5055385;27;102395;-54
2022/08/02 01:26:45;;;;;;;3.13;2.92;;;;;;;22.38;68.42;100502.66;5053458;27;102182;-54
2022/08/02 01:29:21;;;;;;;3.70;3.40;;;;;;;22.38;68.51;100494.31;5055934;27;104002;-54
2022/08/02 01:31:52;;;;;;;3.63;3.33;;;;;;;22.39;68.53;100493.16;5056089;27;104713;-54
2022/08/02 01:34:24;;;;;;;3.42;3.13;;;;;;;22.38;68.39;100497.09;5056821;27;102811;-54
2022/08/02 01:36:56;;;;;;;3.40;3.08;;;;;;;22.38;68.35;100497.91;5056977;27;102255;-54
2022/08/02 01:39:28;;;;;;;3.10;2.90;;;;;;;22.38;68.37;100497.91;5055681;27;104173;-54
2022/08/02 01:41:56;;;;;;;3.10;2.90;;;;;;;22.38;68.30;100502.66;5056207;27;102053;-54
2022/08/02 01:44:27;;;;;;;3.08;2.88;;;;;;;22.39;68.13;100493.16;5055704;27;102246;-54
2022/08/02 01:46:59;;;;;;;3.40;3.20;;;;;;;22.37;68.24;100490.75;5057435;27;102136;-54
2022/08/02 01:49:28;;;;;;;3.35;3.05;;;;;;;22.38;68.46;100486.81;5047647;27;103912;-54
2022/08/02 01:54:45;;;;;;;3.03;2.83;;;;;;;22.38;68.25;100497.09;5048669;27;102491;-54
2022/08/02 01:57:12;;;;;;;;;;;;;;;22.37;68.45;100501.84;5057226;27;102337;-54
2022/08/02 01:59:42;;;;;;;3.15;2.95;;;;;;;22.37;68.55;100501.03;5052142;27;103885;-54
2022/08/02 02:02:11;;;;;;;3.25;2.95;;;;;;;22.37;68.63;100499.06;5055827;27;102690;-54
2022/08/02 02:04:39;;;;;;;3.10;2.90;;;;;;;22.38;68.45;100494.31;5055235;27;102367;-54
2022/08/02 02:07:07;;;;;;;3.10;2.80;;;;;;;22.37;68.47;100492.72;5059848;27;102245;-54
2022/08/02 02:09:37;;;;;;;3.05;2.83;;;;;;;22.37;68.55;100492.72;5049369;27;104068;-54
2022/08/02 02:12:05;;;;;;;3.47;3.28;;;;;;;22.37;68.33;100501.03;5051027;27;102148;-54
2022/08/02 02:14:33;;;;;;;3.30;3.10;;;;;;;22.36;68.37;100503.00;5058368;27;101932;-54
2022/08/02 02:17:02;;;;;;;3.25;3.05;;;;;;;22.37;68.43;100503.81;5060383;27;102386;-54
2022/08/02 02:19:29;;;;;;;;;;;;;;;22.36;68.40;100494.69;5058993;27;103917;-54
2022/08/02 02:21:56;;;;;;;2.75;2.55;;;;;;;22.37;68.45;100503.81;5058923;27;102665;-54
2022/08/02 02:24:23;;;;;;;2.97;2.78;;;;;;;22.38;68.22;100505.41;5055173;27;102736;-54
2022/08/02 02:26:50;;;;;;;3.03;2.83;;;;;;;22.37;68.39;100501.03;5050575;27;102596;-54
2022/08/02 02:29:19;;;;;;;3.03;2.83;;;;;;;22.37;68.26;100501.03;5058909;27;103980;-54
2022/08/02 02:31:48;;;;;;;2.90;2.70;;;;;;;22.37;68.25;100503.81;5059227;27;101979;-54
2022/08/02 02:34:24;;;;;;;2.88;2.67;;;;;;;22.36;68.54;100502.19;5058521;27;102468;-54
2022/08/02 02:36:52;;;;;;;2.80;2.60;;;;;;;22.36;68.27;100496.63;5059952;27;102208;-54
2022/08/02 09:22:29;;;;;;;4.10;3.80;;;;;;;23.12;68.39;100514.81;5069147;27;102614;-55
2022/08/02 09:24:55;;;;;;;4.15;3.85;;;;;;;23.11;68.58;100518.72;5072810;27;102050;-56
2022/08/02 09:27:22;;;;;;;4.00;3.70;;;;;;;23.12;68.36;100525.13;5073730;27;103001;-55
2022/08/02 09:29:53;;;;;;;4.38;4.03;;;;;;;23.09;68.72;100521.09;5071857;27;103767;-56
2022/08/02 09:32:20;;;;;;;4.40;4.10;;;;;;;23.07;68.52;100526.19;5073145;27;102521;-55
2022/08/02 09:34:48;;;;;;;4.28;3.97;;;;;;;23.05;68.50;100514.66;5069520;27;102150;-56
2022/08/02 09:37:26;;;;;;;4.32;4.03;;;;;;;23.06;68.34;100499.59;5072256;27;102477;-56
2022/08/02 09:39:54;;;;;;;3.80;3.53;;;;;;;23.05;68.92;100514.66;5069420;27;103919;-56
2022/08/02 09:42:21;;;;;;;3.95;3.65;;;;;;;23.06;68.70;100509.91;5073042;27;102566;-56
2022/08/02 09:44:55;;;;;;;4.40;4.10;;;;;;;23.04;68.88;100518.56;5070498;27;102350;-56
2022/08/02 09:47:23;;;;;;;4.30;4.00;;;;;;;23.03;68.73;100519.75;5073003;27;102448;-56
2022/08/02 09:49:50;;;;;;;4.15;3.83;;;;;;;23.01;68.53;100516.53;5069903;27;104318;-55
2022/08/02 09:52:21;;;;;;;4.28;3.97;;;;;;;23.01;68.56;100522.09;5074205;27;101968;-55
2022/08/02 09:54:49;;;;;;;4.75;4.35;;;;;;;22.99;68.81;100516.09;5073097;27;102961;-55
2022/08/02 09:57:25;;;;;;;4.72;4.43;;;;;;;22.99;68.53;100521.63;5069450;27;102247;-56
2022/08/02 09:59:52;;;;;;;5.20;4.53;;;;;;;22.98;68.56;100518.06;5072739;27;103889;-56
2022/08/02 10:02:19;;;;;;;4.65;4.35;;;;;;;22.99;68.63;100521.63;5073487;27;102339;-56
2022/08/02 10:04:46;;;;;;;4.10;3.80;;;;;;;22.99;68.56;100516.09;5068665;27;102094;-56
2022/08/02 10:07:13;;;;;;;4.35;4.05;;;;;;;22.99;68.78;100513.31;5074340;27;102657;-55
2022/08/02 10:09:40;;;;;;;4.40;4.10;;;;;;;22.99;68.61;100510.53;5074269;27;102999;-56
2022/08/02 10:12:08;;;;;;;4.45;4.15;;;;;;;23.00;68.75;100523.22;5073079;27;102205;-56
2022/08/02 10:14:37;;;;;;;4.80;4.40;;;;;;;23.00;68.60;100523.22;5068045;27;102195;-56
2022/08/02 10:17:05;;;;;;;5.00;4.60;;;;;;;22.99;68.63;100519.66;5062807;27;102297;-55
2022/08/02 10:19:33;;;;;;;4.27;3.97;;;;;;;22.99;68.65;100522.44;5062551;27;103953;-55
2022/08/02 10:22:04;;;;;;;4.00;3.70;;;;;;;23.01;68.60;100522.09;5075757;27;102231;-55
2022/08/02 10:24:35;;;;;;;4.53;4.22;;;;;;;22.99;68.61;100516.09;5071178;27;102430;-55
2022/08/02 10:27:02;;;;;;;4.43;4.10;;;;;;;23.00;68.69;100517.69;5074235;27;102375;-55
2022/08/02 10:29:33;;;;;;;4.60;4.20;;;;;;;23.00;68.66;100517.69;5076141;27;104406;-55
2022/08/02 10:32:06;;;;;;;4.90;4.47;;;;;;;22.99;68.43;100524.41;5078407;27;102132;-56
2022/08/02 10:34:36;;;;;;;4.53;4.22;;;;;;;22.98;68.80;100512.50;5078626;27;102822;-56
2022/08/02 10:37:05;;;;;;;5.03;4.63;;;;;;;22.99;68.78;100511.34;5079955;27;102404;-55
2022/08/02 10:39:38;;;;;;;4.70;4.40;;;;;;;22.99;68.76;100507.75;5078867;27;103954;-55
2022/08/02 10:42:05;;;;;;;5.03;4.63;;;;;;;22.98;68.91;100497.84;5078715;27;102428;-55
2022/08/02 10:44:33;;;;;;;5.05;4.65;;;;;;;22.98;68.64;100504.19;5079873;27;102326;-55
2022/08/02 10:47:22;;;;;;;4.78;4.45;;;;;;;22.96;68.46;100509.28;5075891;27;102193;-55
2022/08/02 10:49:51;;;;;;;5.30;4.90;;;;;;;22.95;68.78;100509.66;5078184;27;103896;-55
2022/08/02 10:52:19;;;;;;;5.60;5.18;;;;;;;22.95;68.74;100509.66;5078458;27;102400;-54
2022/08/02 10:54:50;;;;;;;5.70;5.20;;;;;;;22.95;68.45;100510.44;5078523;27;101916;-54
2022/08/02 10:57:20;;;;;;;5.18;4.78;;;;;;;22.95;68.57;100516.00;5078872;27;102178;-54
2022/08/02 10:59:47;;;;;;;5.05;4.60;;;;;;;22.96;68.59;100534.25;5077813;27;104018;-54
2022/08/02 11:02:33;;;;;;;5.30;4.90;;;;;;;22.95;68.85;100537.41;5078918;27;102057;-54
2022/08/02 11:05:03;;;;;;;5.22;4.82;;;;;;;22.96;68.63;100545.34;5077359;27;102381;-54
2022/08/02 11:07:32;;;;;;;4.97;4.57;;;;;;;22.96;68.50;100563.97;5078718;27;102620;-54
2022/08/02 11:10:18;;;;;;;6.15;5.65;;;;;;;22.94;68.59;100574.66;5065372;27;104010;-54
2022/08/02 11:12:58;;;;;;;5.32;4.90;;;;;;;22.90;68.42;100563.44;5069821;27;102325;-54
2022/08/02 11:15:26;;;;;;;5.63;5.18;;;;;;;22.89;68.39;100566.53;5075520;27;102817;-54
2022/08/02 11:17:57;;;;;;;5.40;4.90;;;;;;;22.88;68.29;100570.50;5074149;27;103674;-54
2022/08/02 11:20:24;;;;;;;6.32;5.82;;;;;;;22.87;68.23;100566.91;5075857;27;103925;-54
2022/08/02 11:22:53;;;;;;;6.13;5.63;;;;;;;22.86;68.38;100567.25;5077224;27;102108;-54
2022/08/02 11:25:29;;;;;;;;;;;;;;;22.85;68.65;100568.44;5073621;27;102270;-54
2022/08/02 11:27:57;;;;;;;6.57;5.97;;;;;;;22.86;68.69;100567.25;5079738;27;102515;-54
2022/08/02 11:30:25;;;;;;;6.50;6.00;;;;;;;22.85;68.33;100560.09;5077208;27;103832;-54
2022/08/02 11:32:56;;;;;;;6.38;5.75;;;;;;;22.85;68.48;100565.66;5076245;27;102744;-54
2022/08/02 11:35:30;;;;;;;7.90;6.35;;;;;;;22.84;68.99;100564.03;5077086;27;102379;-54
2022/08/02 11:37:58;;;;;;;6.88;6.28;;;;;;;22.83;68.52;100563.25;5079116;27;102262;-54
2022/08/02 11:40:37;;;;;;;7.10;6.50;;;;;;;22.84;68.86;100569.59;5078133;27;104088;-54
2022/08/02 11:43:03;;;;;;;7.57;6.70;;;;;;;22.84;68.88;100567.63;5069503;27;102202;-54
2022/08/02 11:45:30;;;;;;;6.50;6.00;;;;;;;22.83;69.14;100565.19;5057857;27;102035;-54
2022/08/02 11:47:58;;;;;;;6.60;6.00;;;;;;;22.83;69.23;100566.03;5060111;27;102335;-54
2022/08/02 11:50:25;;;;;;;6.83;6.20;;;;;;;22.83;68.88;100567.97;5077764;27;103905;-54
2022/08/02 11:52:54;;;;;;;6.07;5.57;;;;;;;22.84;69.01;100575.16;5078141;27;102886;-54
2022/08/02 11:55:26;;;;;;;6.55;5.95;;;;;;;22.82;69.01;100567.16;5069507;27;102581;-54
2022/08/02 11:57:57;;;;;;;5.53;5.05;;;;;;;22.83;68.93;100577.13;5088476;27;102143;-54
2022/08/02 12:00:24;;;;;;;6.85;6.07;;;;;;;22.83;68.56;100577.13;5086787;27;103932;-54
2022/08/02 12:02:51;;;;;;;6.78;6.18;;;;;;;22.84;68.93;100569.59;5071087;27;102385;-54
2022/08/02 12:05:22;;;;;;;6.32;5.80;;;;;;;22.85;69.07;100576.75;5065869;27;106888;-54
2022/08/02 12:07:51;;;;;;;6.30;5.80;;;;;;;22.85;69.04;100574.78;5079288;27;102218;-54
2022/08/02 12:10:19;;;;;;;6.82;6.32;;;;;;;22.85;69.02;100579.53;5077070;27;104023;-54
2022/08/02 12:12:50;;;;;;;6.65;6.10;;;;;;;22.86;68.92;100583.91;5075617;27;102623;-54
2022/08/02 12:15:29;;;;;;;6.38;5.88;;;;;;;22.84;68.69;100608.44;5076744;27;102670;-54
2022/08/02 12:20:43;;;;;;;6.47;5.97;;;;;;;22.83;69.10;100623.47;5073514;27;103755;-54
2022/08/02 12:23:10;;;;;;;7.70;7.10;;;;;;;22.82;69.04;100622.66;5068467;27;102276;-54
2022/08/02 12:25:37;;;;;;;7.65;7.05;;;;;;;22.81;69.57;100625.81;5073200;27;103606;-54
2022/08/02 12:28:14;;;;;;;8.05;7.43;;;;;;;22.78;69.63;100617.00;5073183;27;102629;-55
2022/08/02 12:30:50;;;;;;;8.30;7.60;;;;;;;22.77;69.83;100614.59;5063086;27;104483;-54
2022/08/02 12:33:16;;;;;;;8.43;7.63;;;;;;;22.75;69.65;100623.28;5068977;27;102145;-54
2022/08/02 12:35:46;;;;;;;7.53;6.93;;;;;;;22.76;69.58;100630.44;5077657;27;102630;-54
2022/08/02 12:38:12;;;;;;;8.57;7.80;;;;;;;22.77;69.47;100625.69;5078903;27;102547;-54
2022/08/02 12:40:40;;;;;;;8.27;7.53;;;;;;;22.75;69.69;100612.16;5074685;27;103892;-54
2022/08/02 12:43:15;;;;;;;8.40;7.70;;;;;;;22.76;69.65;100619.34;5070825;27;102395;-54
2022/08/02 12:45:47;;;;;;;8.88;8.10;;;;;;;22.75;69.65;100617.72;5067899;27;102182;-54
2022/08/02 12:48:14;;;;;;;8.50;7.80;;;;;;;22.77;69.57;100612.63;5070158;27;102212;-54
2022/08/02 12:50:41;;;;;;;7.95;7.30;;;;;;;22.77;69.42;100609.84;5075086;27;103945;-54
2022/08/02 12:53:12;;;;;;;8.30;7.70;;;;;;;22.79;69.41;100610.31;5071338;27;102490;-54
2022/08/02 12:55:48;;;;;;;8.13;7.43;;;;;;;22.79;69.51;100606.72;5076963;27;102386;-54
2022/08/02 12:58:14;;;;;;;8.13;7.43;;;;;;;22.79;69.29;100607.56;5076930;27;102140;-54
2022/08/02 13:00:42;;;;;;;8.32;7.53;;;;;;;22.82;69.30;100610.75;5076243;27;105032;-54
2022/08/02 13:03:10;;;;;;;7.97;7.25;;;;;;;22.80;69.31;100602.81;5077462;27;102443;-54
2022/08/02 13:05:37;;;;;;;8.35;7.65;;;;;;;22.82;69.25;100610.75;5071522;27;102251;-54
2022/08/02 13:08:04;;;;;;;8.48;7.78;;;;;;;22.81;69.14;100615.50;5078395;27;102159;-54
2022/08/02 13:10:32;;;;;;;8.45;7.75;;;;;;;22.81;69.49;100612.72;5076459;27;103970;-54
2022/08/02 13:13:00;;;;;;;7.93;7.33;;;;;;;22.81;69.39;100604.41;5077312;27;102284;-54
2022/08/02 13:15:28;;;;;;;8.02;7.20;;;;;;;22.81;69.46;100609.16;5073405;27;102803;-54
2022/08/02 13:17:55;;;;;;;8.23;7.43;;;;;;;22.81;69.43;100614.69;5065042;27;102142;-55
2022/08/02 13:20:21;;;;;;;7.97;7.32;;;;;;;22.80;69.54;100611.13;5075919;27;104052;-54
2022/08/02 13:22:48;;;;;;;8.52;7.82;;;;;;;22.81;69.37;100620.25;5067527;27;102553;-54
2022/08/02 13:25:14;;;;;;;8.02;7.43;;;;;;;22.81;69.49;100625.81;5074293;27;102548;-54
2022/08/02 13:27:42;;;;;;;8.40;7.65;;;;;;;22.79;69.43;100626.97;5076895;27;102279;-54
2022/08/02 13:30:09;;;;;;;8.17;7.47;;;;;;;22.79;69.36;100629.75;5074871;27;103943;-54
2022/08/02 13:32:37;;;;;;;8.63;7.82;;;;;;;22.80;69.31;100633.31;5063782;27;102275;-54
2022/08/02 13:35:04;;;;;;;8.40;7.75;;;;;;;22.78;69.33;100628.09;5068823;27;102304;-54
2022/08/02 13:37:31;;;;;;;8.75;8.05;;;;;;;22.78;69.42;100628.09;5058759;27;102161;-54
2022/08/02 13:39:57;;;;;;;7.78;7.18;;;;;;;22.78;69.36;100630.09;5061664;27;104285;-54
2022/08/02 13:42:24;;;;;;;7.75;7.07;;;;;;;22.78;69.29;100630.88;5074108;27;102237;-54
2022/08/02 13:44:52;;;;;;;8.32;7.68;;;;;;;22.78;69.35;100644.75;5064000;27;102285;-54
2022/08/02 13:47:18;;;;;;;8.53;7.73;;;;;;;22.79;69.37;100628.91;5073159;27;102673;-54
2022/08/02 13:49:45;;;;;;;8.13;7.43;;;;;;;22.78;69.25;100628.09;5072471;27;104267;-55
2022/08/02 13:52:12;;;;;;;8.70;7.90;;;;;;;22.78;69.58;100644.75;5075094;27;102363;-54
2022/08/02 13:54:39;;;;;;;8.18;7.47;;;;;;;22.78;69.45;100639.22;5070301;27;102352;-54
2022/08/02 13:57:05;;;;;;;8.88;8.18;;;;;;;22.78;69.48;100633.66;5074616;27;102608;-53
2022/08/02 13:59:32;;;;;;;8.80;8.00;;;;;;;22.77;69.44;100634.84;5075295;27;104530;-54
2022/08/02 14:02:00;;;;;;;8.63;7.93;;;;;;;22.77;69.23;100637.59;5076890;27;102422;-55
2022/08/02 14:04:28;;;;;;;8.40;7.70;;;;;;;22.78;69.27;100646.72;5078281;27;102174;-54
2022/08/02 14:06:56;;;;;;;8.95;8.25;;;;;;;22.77;69.39;100643.16;5080107;27;104594;-54
2022/08/02 14:09:23;;;;;;;9.15;8.35;;;;;;;22.77;69.17;100632.06;5079163;27;103903;-54
2022/08/02 14:11:50;;;;;;;9.63;8.82;;;;;;;22.78;69.34;100639.22;5077651;27;102335;-54
2022/08/02 14:14:16;;;;;;;9.10;8.30;;;;;;;22.77;69.46;100632.06;5080236;27;102343;-54
2022/08/02 14:16:43;;;;;;;9.82;9.02;;;;;;;22.77;69.42;100629.28;5072683;27;102206;-54
2022/08/02 14:19:12;;;;;;;9.30;8.60;;;;;;;22.76;69.37;100622.13;5073689;27;103482;-54
2022/08/02 14:21:38;;;;;;;;;;;;;;;22.75;69.38;100628.81;5072091;27;102155;-54
2022/08/02 14:24:05;;;;;;;9.35;8.55;;;;;;;22.75;69.43;100616.91;5079874;27;102013;-54
2022/08/02 14:26:32;;;;;;;9.38;8.57;;;;;;;22.74;69.45;100621.66;5078266;27;102303;-55
2022/08/02 14:28:58;;;;;;;9.95;9.15;;;;;;;22.74;69.60;100616.13;5073155;27;103919;-55
2022/08/02 14:31:25;;;;;;;9.88;9.07;;;;;;;22.74;69.59;100621.66;5078761;27;102400;-55
2022/08/02 14:33:51;;;;;;;9.93;9.02;;;;;;;22.73;69.73;100608.97;5078110;27;102522;-55
2022/08/02 14:36:19;;;;;;;9.82;9.02;;;;;;;22.73;69.83;100608.97;5077578;27;103116;-55
2022/08/02 14:38:46;;;;;;;9.30;8.43;;;;;;;22.73;69.78;100619.25;5078935;27;103835;-54
2022/08/02 14:41:12;;;;;;;8.68;7.90;;;;;;;22.75;69.66;100616.91;5078391;27;102225;-55
2022/08/02 14:46:25;;;;;;;9.05;8.30;;;;;;;22.73;69.54;100603.41;5076187;27;102221;-55
2022/08/02 14:48:52;;;;;;;9.70;8.90;;;;;;;22.75;69.28;100601.06;5078064;27;103912;-54
2022/08/02 14:51:20;;;;;;;10.13;8.82;;;;;;;22.75;69.78;100600.28;5077581;27;102516;-55
2022/08/02 14:53:46;;;;;;;9.80;8.80;;;;;;;22.74;69.74;100607.78;5068698;27;102135;-54
2022/08/02 14:56:13;;;;;;;9.13;8.32;;;;;;;22.74;69.42;100605.03;5079114;27;102258;-54
2022/08/02 14:58:39;;;;;;;9.13;8.32;;;;;;;22.75;69.47;100606.63;5074076;27;103741;-55
2022/08/02 15:01:06;;;;;;;9.05;8.32;;;;;;;22.74;69.58;100613.34;5076872;27;102489;-54
2022/08/02 15:03:32;;;;;;;8.70;7.90;;;;;;;22.73;69.70;100617.28;5076137;27;102555;-54
2022/08/02 15:05:59;;;;;;;8.88;8.18;;;;;;;22.73;69.85;100614.50;5075994;27;103076;-54
2022/08/02 15:08:27;;;;;;;9.10;8.40;;;;;;;22.73;69.78;100610.94;5078784;27;104148;-54
2022/08/02 15:10:54;;;;;;;9.20;8.30;;;;;;;22.72;69.71;100618.47;5079712;27;102283;-54
2022/08/02 15:13:21;;;;;;;9.27;8.38;;;;;;;22.74;69.49;100616.13;5075726;27;102397;-54
2022/08/02 15:15:47;;;;;;;8.73;8.02;;;;;;;22.75;69.52;100626.03;5079885;27;102320;-54
2022/08/02 15:18:14;;;;;;;8.25;7.65;;;;;;;22.73;69.82;100631.16;5078008;27;105299;-54
2022/08/02 15:20:41;;;;;;;8.32;7.70;;;;;;;22.72;69.88;100635.09;5072380;27;102259;-54
2022/08/02 15:23:07;;;;;;;9.10;8.30;;;;;;;22.72;69.80;100635.09;5068897;27;102494;-54
2022/08/02 15:25:35;;;;;;;8.93;8.23;;;;;;;22.72;69.96;100635.09;5076285;27;102359;-54
2022/08/02 15:28:05;;;;;;;8.87;8.13;;;;;;;22.72;70.04;100635.09;5075509;27;104183;-54
2022/08/02 15:30:32;;;;;;;8.38;7.70;;;;;;;22.72;69.90;100634.28;5079618;27;102143;-54
2022/08/02 15:32:59;;;;;;;7.80;7.10;;;;;;;22.70;69.94;100629.09;5076711;27;102239;-54
2022/08/02 15:35:25;;;;;;;8.80;8.10;;;;;;;22.72;70.01;100623.19;5077740;27;102171;-54
2022/08/02 15:37:52;;;;;;;8.63;7.93;;;;;;;22.71;69.83;100622.38;5078391;27;103936;-55
2022/08/02 15:40:18;;;;;;;8.90;8.10;;;;;;;22.72;69.97;100628.72;5079321;27;101953;-54
2022/08/02 15:42:46;;;;;;;8.63;7.93;;;;;;;22.72;69.64;100625.94;5077872;27;102289;-54
2022/08/02 15:45:13;;;;;;;8.67;7.97;;;;;;;22.72;69.64;100635.09;5079644;27;102534;-54
2022/08/02 15:47:40;;;;;;;7.72;7.13;;;;;;;22.72;69.59;100637.03;5076208;27;105166;-54
2022/08/02 15:50:07;;;;;;;7.82;7.22;;;;;;;22.73;69.59;100636.72;5076128;27;102156;-54
2022/08/02 15:52:33;;;;;;;8.55;7.85;;;;;;;22.72;69.84;100643.44;5076492;27;103732;-54
2022/08/02 15:55:00;;;;;;;8.18;7.57;;;;;;;22.71;69.86;100647.34;5068770;27;102167;-54
2022/08/02 15:57:26;;;;;;;8.40;7.70;;;;;;;22.72;69.68;100645.38;5072357;27;103989;-54
2022/08/02 15:59:55;;;;;;;16.00;8.20;;;;;;;22.72;69.26;100657.28;5075726;27;102101;-54
2022/08/02 16:02:21;;;;;;;8.30;7.55;;;;;;;22.74;69.35;100662.47;5077497;27;102383;-54
2022/08/02 16:04:48;;;;;;;10.55;8.02;;;;;;;22.74;69.48;100673.56;5075951;27;102321;-54
2022/08/02 16:07:15;;;;;;;9.20;8.07;;;;;;;22.74;69.09;100673.56;5075083;27;104456;-54
2022/08/02 16:09:41;;;;;;;11.57;7.85;;;;;;;22.75;69.30;100675.97;5069695;27;102206;-54
2022/08/02 16:12:08;;;;;;;12.10;7.78;;;;;;;22.73;70.11;100686.66;5068578;27;101979;-54
2022/08/02 16:14:35;;;;;;;10.02;8.00;;;;;;;22.72;69.83;100689.75;5079201;27;102177;-54
2022/08/02 16:17:03;;;;;;;10.13;7.60;;;;;;;22.71;70.04;100693.69;5065698;27;103979;-54
2022/08/02 16:19:30;;;;;;;8.17;7.50;;;;;;;22.71;69.83;100688.94;5077837;27;102332;-55
2022/08/02 16:21:56;;;;;;;8.40;7.60;;;;;;;22.68;70.16;100686.88;5074454;27;102163;-54
2022/08/02 16:24:23;;;;;;;8.50;7.72;;;;;;;22.70;69.67;100681.78;5072643;27;102284;-55
2022/08/02 16:26:49;;;;;;;8.48;7.45;;;;;;;22.70;69.50;100676.25;5067428;27;103978;-54
2022/08/02 16:29:17;;;;;;;11.32;7.35;;;;;;;22.73;68.53;100686.66;5069273;27;102331;-55
2022/08/02 16:31:43;;;;;;;16.25;8.15;;;;;;;22.79;69.04;100696.34;5077512;27;102208;-55
2022/08/02 16:34:11;;;;;;;15.63;8.70;;;;;;;22.77;69.40;100692.28;5079059;27;102373;-55
2022/08/02 16:36:38;;;;;;;14.27;8.50;;;;;;;22.74;69.55;100693.78;5076525;27;103732;-55
2022/08/02 16:39:06;;;;;;;22.98;8.40;;;;;;;22.77;69.15;100703.38;5073617;27;102191;-57
2022/08/02 16:41:32;;;;;;;28.27;8.50;;;;;;;22.74;69.21;100704.91;5072974;27;102264;-57
2022/08/02 16:43:59;;;;;;;22.73;8.13;;;;;;;22.72;69.96;100696.13;5076676;27;102301;-57
2022/08/02 16:46:25;;;;;;;19.48;8.48;;;;;;;22.71;69.79;100705.59;5076906;27;103892;-57
2022/08/02 16:48:52;;;;;;;14.52;7.75;;;;;;;22.71;70.23;100705.59;5074678;27;102285;-57
2022/08/02 16:51:20;;;;;;;13.48;8.80;;;;;;;22.69;70.21;100710.72;5075333;27;102243;-57
2022/08/02 16:53:46;;;;;;;14.63;7.90;;;;;;;22.69;70.25;100713.47;5074603;27;102302;-57
2022/08/02 16:56:13;;;;;;;12.05;8.23;;;;;;;22.69;70.14;100719.03;5076414;27;103951;-57
2022/08/02 16:58:39;;;;;;;12.90;8.90;;;;;;;22.69;69.65;100713.47;5072625;27;102722;-54
2022/08/02 17:01:06;;;;;;;17.42;9.30;;;;;;;22.71;69.83;100722.25;5073554;27;102439;-56
2022/08/02 17:03:33;;;;;;;16.58;9.57;;;;;;;22.74;69.29;100727.09;5074017;27;102245;-57
2022/08/02 17:06:00;;;;;;;12.65;9.60;;;;;;;22.72;70.05;100718.31;5070959;27;103873;-56
2022/08/02 17:08:28;;;;;;;12.13;9.32;;;;;;;22.69;69.96;100724.56;5074842;27;102654;-56
2022/08/02 17:10:54;;;;;;;15.20;8.85;;;;;;;22.69;70.30;100723.78;5073425;27;103079;-56
2022/08/02 17:13:21;;;;;;;10.57;8.90;;;;;;;22.67;70.19;100732.44;5075284;27;102302;-56
2022/08/02 17:15:47;;;;;;;11.50;9.05;;;;;;;22.67;70.39;100731.63;5074217;27;103395;-56
2022/08/02 17:18:14;;;;;;;12.15;8.60;;;;;;;22.65;70.31;100734.78;5074060;27;102722;-56
2022/08/02 17:20:40;;;;;;;12.15;8.27;;;;;;;22.65;70.29;100740.31;5074909;27;102172;-57
2022/08/02 17:23:08;;;;;;;9.98;8.98;;;;;;;22.64;70.27;100744.22;5075278;27;102225;-56
2022/08/02 17:25:37;;;;;;;9.95;8.32;;;;;;;22.63;70.57;100742.63;5069820;27;104057;-57
2022/08/02 17:28:04;;;;;;;11.98;8.40;;;;;;;22.63;70.29;100753.72;5068317;27;103565;-56
2022/08/02 17:30:31;;;;;;;11.50;8.95;;;;;;;22.62;70.21;100756.84;5075249;27;101933;-57
2022/08/02 17:32:57;;;;;;;10.68;8.95;;;;;;;22.62;70.42;100752.13;5077819;27;102423;-56
2022/08/02 17:35:24;;;;;;;10.98;8.40;;;;;;;22.61;70.13;100761.59;5076632;27;103889;-56
2022/08/02 17:37:51;;;;;;;10.98;8.07;;;;;;;22.61;69.99;100756.06;5072536;27;102475;-57
2022/08/02 17:40:17;;;;;;;9.45;8.15;;;;;;;22.61;70.19;100764.38;5069160;27;102257;-57
2022/08/02 17:42:45;;;;;;;8.75;7.95;;;;;;;22.60;70.08;100759.97;5083704;27;102151;-56
2022/08/02 17:45:12;;;;;;;9.27;8.30;;;;;;;22.59;70.04;100769.47;5078166;27;103949;-56
2022/08/02 17:47:40;;;;;;;9.20;7.97;;;;;;;22.60;70.40;100765.50;5077310;27;102210;-57
2022/08/02 17:50:07;;;;;;;8.55;7.57;;;;;;;22.60;70.20;100773.84;5075748;27;102368;-57
2022/08/02 17:52:35;;;;;;;9.00;8.10;;;;;;;22.59;70.15;100769.47;5064141;27;102206;-57
2022/08/02 17:55:02;;;;;;;8.50;7.70;;;;;;;22.59;70.44;100775.00;5063500;27;104058;-56
2022/08/02 17:57:29;;;;;;;8.77;7.88;;;;;;;22.58;70.23;100776.16;5072668;27;102013;-57
2022/08/02 17:59:58;;;;;;;8.55;7.75;;;;;;;22.58;70.29;100778.94;5077116;27;102157;-57
2022/08/02 18:02:25;;;;;;;8.52;7.70;;;;;;;22.59;70.35;100788.06;5069878;27;103072;-57
2022/08/02 18:04:52;;;;;;;10.25;7.93;;;;;;;22.58;70.33;100787.25;5062708;27;104164;-57
2022/08/02 18:07:19;;;;;;;8.00;7.15;;;;;;;22.58;70.24;100784.50;5076886;27;101964;-57
2022/08/02 18:09:46;;;;;;;9.82;8.23;;;;;;;22.58;70.25;100783.69;5083440;27;101994;-57
2022/08/02 18:12:13;;;;;;;10.02;7.97;;;;;;;22.56;70.32;100775.69;5083841;27;102174;-56